FQIN

Inhambane Airport

Inhambabe, Mozambique
METAR FQIN 211800Z 00000KT 9000 -FG 29/17 Q1025
Observed Flight Rules
Jun-21 @ 18:00 UTC (4 hours ago)
Visibility Conditions
8,996 meters
  • Light Fog
Temperatures Readings
Current 29°C / 84°F
Dewpoint 17°C / 63°F
Humidity 48%
Altimeter 30.27" Hg
Pressure 1025 hPa
Elevation 15
METAR FQIN 211800Z 00000KT 9000 -FG 29/17 Q1025
Observed Flight Rules
Jun-21 @ 18:00 UTC
(4 hours ago)
Conditions
  • Light Fog
Temperature Dewpoint
29°C / 84°F 17°C / 63°F
Humidity Altimeter Pressure
48% 30.27" Hg 1025 hPa